createdAt,value
2023-08-30T00:00:54.958Z,4.22
2023-08-30T00:03:22.778Z,4.55
2023-08-30T00:06:00.470Z,4.28
2023-08-30T00:08:30.874Z,4.43
2023-08-30T00:11:00.043Z,4.25
2023-08-30T00:13:28.007Z,4.63
2023-08-30T00:15:56.083Z,4.82
2023-08-30T00:18:28.926Z,4.32
2023-08-30T00:20:56.562Z,4.22
2023-08-30T00:23:27.937Z,4.80
2023-08-30T00:25:59.072Z,4.68
2023-08-30T00:28:26.384Z,4.38
2023-08-30T00:30:57.427Z,4.57
2023-08-30T00:33:24.290Z,3.92
2023-08-30T00:36:03.881Z,4.10
2023-08-30T00:38:36.108Z,4.93
2023-08-30T00:41:06.748Z,4.68
2023-08-30T00:43:35.481Z,3.80
2023-08-30T00:46:04.277Z,4.40
2023-08-30T00:48:31.098Z,4.65
2023-08-30T00:50:59.652Z,4.47
2023-08-30T00:53:27.918Z,4.60
2023-08-30T00:55:56.141Z,4.78
2023-08-30T00:58:27.827Z,4.32
2023-08-30T01:00:56.132Z,3.90
2023-08-30T01:03:23.807Z,4.78
2023-08-30T01:05:53.291Z,4.05
2023-08-30T01:08:23.690Z,4.53
2023-08-30T01:11:22.390Z,3.85
2023-08-30T01:14:16.758Z,4.53
2023-08-30T01:16:45.906Z,4.57
2023-08-30T01:19:51.692Z,3.78
2023-08-30T01:22:56.906Z,4.22
2023-08-30T01:25:57.700Z,6.85
2023-08-30T01:28:32.798Z,4.78
2023-08-30T01:33:31.091Z,4.25
2023-08-30T01:36:01.509Z,4.55
2023-08-30T01:38:31.842Z,4.47
2023-08-30T01:41:03.137Z,4.80
2023-08-30T01:43:34.889Z,5.05
2023-08-30T01:46:04.808Z,5.10
2023-08-30T01:48:34.973Z,4.60
2023-08-30T01:51:03.076Z,4.63
2023-08-30T01:55:59.749Z,4.85
2023-08-30T01:58:27.959Z,5.38
2023-08-30T02:00:56.556Z,5.65
2023-08-30T02:03:24.141Z,4.97
2023-08-30T02:06:12.890Z,4.78
2023-08-30T02:08:50.117Z,5.18
2023-08-30T02:11:23.690Z,5.07
2023-08-30T02:13:54.908Z,5.00
2023-08-30T02:16:26.195Z,5.28
2023-08-30T02:18:55.444Z,5.57
2023-08-30T02:21:25.025Z,5.65
2023-08-30T02:23:53.369Z,5.03
2023-08-30T02:26:26.425Z,5.97
2023-08-30T02:28:56.753Z,4.88
2023-08-30T02:31:24.008Z,5.30
2023-08-30T02:33:52.090Z,4.97
2023-08-30T02:36:19.829Z,5.22
2023-08-30T02:38:47.094Z,5.38
2023-08-30T02:41:14.133Z,5.47
2023-08-30T02:43:41.008Z,5.63
2023-08-30T02:46:08.910Z,6.03
2023-08-30T02:48:36.800Z,5.43
2023-08-30T02:51:08.829Z,5.70
2023-08-30T02:53:36.349Z,5.55
2023-08-30T02:56:03.408Z,5.88
2023-08-30T02:58:32.717Z,5.60
2023-08-30T03:01:03.439Z,7.00
2023-08-30T03:03:32.057Z,7.00
2023-08-30T03:05:59.468Z,6.10
2023-08-30T03:08:26.331Z,6.82
2023-08-30T03:10:53.922Z,7.18
2023-08-30T03:13:20.819Z,6.07
2023-08-30T03:15:52.515Z,7.68
2023-08-30T03:18:21.749Z,7.07
2023-08-30T03:20:50.433Z,7.15
2023-08-30T03:23:17.807Z,7.88
2023-08-30T03:25:45.889Z,7.30
2023-08-30T03:28:12.935Z,8.27
2023-08-30T03:30:40.094Z,7.65
2023-08-30T03:33:07.805Z,7.80
2023-08-30T03:35:39.087Z,6.97
2023-08-30T03:38:07.569Z,7.75
2023-08-30T03:40:35.736Z,7.18
2023-08-30T03:43:02.901Z,7.72
2023-08-30T03:45:30.909Z,8.20
2023-08-30T03:48:00.820Z,8.00
2023-08-30T03:50:30.124Z,7.32
2023-08-30T03:52:59.484Z,7.53
2023-08-30T03:55:26.647Z,8.05
2023-08-30T03:57:53.618Z,7.40
2023-08-30T04:00:20.622Z,8.05
2023-08-30T04:02:48.703Z,6.68
2023-08-30T04:05:15.828Z,7.10
2023-08-30T04:07:45.869Z,7.57
2023-08-30T04:10:13.104Z,8.70
2023-08-30T04:12:39.863Z,7.10
2023-08-30T04:15:09.446Z,6.78
2023-08-30T04:17:36.757Z,6.75
2023-08-30T04:20:09.293Z,6.68
2023-08-30T04:22:37.999Z,7.28
2023-08-30T04:25:06.496Z,6.97
2023-08-30T04:27:33.719Z,6.35
2023-08-30T04:30:00.477Z,7.28
2023-08-30T04:32:32.405Z,6.70
2023-08-30T04:34:59.948Z,6.93
2023-08-30T04:37:32.984Z,6.53
2023-08-30T04:40:03.164Z,7.05
2023-08-30T04:42:31.183Z,6.32
2023-08-30T04:45:01.937Z,7.15
2023-08-30T04:47:35.764Z,7.05
2023-08-30T04:50:05.077Z,7.18
2023-08-30T04:52:32.696Z,6.45
2023-08-30T04:55:03.823Z,6.88
2023-08-30T04:57:31.107Z,6.45
2023-08-30T04:59:58.320Z,6.22
2023-08-30T05:02:27.225Z,6.63
2023-08-30T05:04:56.010Z,6.70
2023-08-30T05:07:25.251Z,6.95
2023-08-30T05:09:55.655Z,7.28
2023-08-30T05:12:23.760Z,6.40
2023-08-30T05:17:20.318Z,5.75
2023-08-30T05:19:48.369Z,6.70
2023-08-30T05:22:16.446Z,7.03
2023-08-30T05:24:49.083Z,7.18
2023-08-30T05:27:18.503Z,7.13
2023-08-30T05:29:45.750Z,7.07
2023-08-30T05:32:12.974Z,8.15
2023-08-30T05:34:39.643Z,7.35
2023-08-30T05:37:07.315Z,6.70
2023-08-30T05:39:35.641Z,7.35
2023-08-30T05:44:30.292Z,6.65
2023-08-30T05:46:56.947Z,6.95
2023-08-30T05:49:24.087Z,7.13
2023-08-30T05:51:52.582Z,6.80
2023-08-30T05:54:19.926Z,6.53
2023-08-30T05:56:46.886Z,6.32
2023-08-30T05:59:14.125Z,5.35
2023-08-30T06:01:41.211Z,6.22
2023-08-30T06:04:08.347Z,5.80
2023-08-30T06:06:36.074Z,6.15
2023-08-30T06:09:02.998Z,5.90
2023-08-30T06:11:29.674Z,6.00
2023-08-30T06:13:56.580Z,6.15
2023-08-30T06:16:23.433Z,5.85
2023-08-30T06:18:52.406Z,7.05
2023-08-30T06:21:19.625Z,6.13
2023-08-30T06:23:46.666Z,7.05
2023-08-30T06:26:13.995Z,6.28
2023-08-30T06:28:42.902Z,6.07
2023-08-30T06:31:09.876Z,7.40
2023-08-30T06:33:37.521Z,6.18
2023-08-30T06:36:05.156Z,7.22
2023-08-30T06:38:31.923Z,5.93
2023-08-30T06:41:01.842Z,7.80
2023-08-30T06:43:28.661Z,7.85
2023-08-30T06:45:59.810Z,7.75
2023-08-30T06:48:27.183Z,8.18
2023-08-30T06:50:54.692Z,9.25
2023-08-30T06:53:24.378Z,9.23
2023-08-30T06:56:01.420Z,8.77
2023-08-30T06:58:28.793Z,8.65
2023-08-30T07:01:00.323Z,9.68
2023-08-30T07:03:27.321Z,8.73
2023-08-30T07:05:56.426Z,8.07
2023-08-30T07:08:23.854Z,8.80
2023-08-30T07:10:52.552Z,7.72
2023-08-30T07:13:19.578Z,8.75
2023-08-30T07:15:48.147Z,8.73
2023-08-30T07:18:16.564Z,8.45
2023-08-30T07:20:44.131Z,8.50
2023-08-30T07:23:13.669Z,8.43
2023-08-30T07:25:40.949Z,8.23
2023-08-30T07:28:08.435Z,7.63
2023-08-30T07:30:36.665Z,7.88
2023-08-30T07:33:04.965Z,8.82
2023-08-30T07:35:35.110Z,8.48
2023-08-30T07:38:03.749Z,8.07
2023-08-30T07:40:32.293Z,7.00
2023-08-30T07:43:00.269Z,7.43
2023-08-30T07:45:27.328Z,6.40
2023-08-30T07:47:54.832Z,8.10
2023-08-30T07:50:22.723Z,6.65
2023-08-30T07:52:50.681Z,7.70
2023-08-30T07:55:17.752Z,6.30
2023-08-30T07:57:44.494Z,6.93
2023-08-30T08:00:12.346Z,7.63
2023-08-30T08:02:39.758Z,6.53
2023-08-30T08:05:12.925Z,6.60
2023-08-30T08:07:41.608Z,7.32
2023-08-30T08:10:16.106Z,6.55
2023-08-30T08:12:46.786Z,5.90
2023-08-30T08:15:13.719Z,6.55
2023-08-30T08:17:42.516Z,5.97
2023-08-30T08:20:10.967Z,5.72
2023-08-30T08:22:40.640Z,5.45
2023-08-30T08:25:11.483Z,6.05
2023-08-30T08:27:41.630Z,5.28
2023-08-30T08:30:11.219Z,5.55
2023-08-30T08:32:38.310Z,6.05
2023-08-30T08:35:09.201Z,6.45
2023-08-30T08:37:38.198Z,5.93
2023-08-30T08:40:10.800Z,5.10
2023-08-30T08:42:38.559Z,4.88
2023-08-30T08:45:06.795Z,5.05
2023-08-30T08:47:35.017Z,6.10
2023-08-30T08:52:40.861Z,5.03
2023-08-30T08:55:11.919Z,4.50
2023-08-30T08:57:44.120Z,4.90
2023-08-30T09:00:11.863Z,4.28
2023-08-30T09:02:44.096Z,5.05
2023-08-30T09:05:12.824Z,4.22
2023-08-30T09:07:41.616Z,4.25
2023-08-30T09:10:10.784Z,4.85
2023-08-30T09:12:40.074Z,4.20
2023-08-30T09:15:13.895Z,4.05
2023-08-30T09:17:41.829Z,4.32
2023-08-30T09:20:15.794Z,4.65
2023-08-30T09:22:44.562Z,4.30
2023-08-30T09:25:25.401Z,5.10
2023-08-30T09:27:58.502Z,3.42
2023-08-30T09:30:27.060Z,4.47
2023-08-30T09:35:23.902Z,4.60
2023-08-30T09:37:51.011Z,4.60
2023-08-30T09:40:21.743Z,5.20
2023-08-30T09:43:02.561Z,5.18
2023-08-30T09:45:38.714Z,4.75
2023-08-30T09:48:11.542Z,4.35
2023-08-30T09:50:41.708Z,5.00
2023-08-30T09:53:13.822Z,5.18
2023-08-30T09:55:42.683Z,4.85
2023-08-30T10:00:37.792Z,4.68
2023-08-30T10:03:25.020Z,5.20
2023-08-30T10:05:55.895Z,5.55
2023-08-30T10:10:54.418Z,4.70
2023-08-30T10:13:23.496Z,4.70
2023-08-30T10:15:58.743Z,4.90
2023-08-30T10:18:29.791Z,4.72
2023-08-30T10:21:03.371Z,3.60
2023-08-30T10:23:32.515Z,3.50
2023-08-30T10:26:07.247Z,3.10
2023-08-30T10:28:41.077Z,3.17
2023-08-30T10:31:09.624Z,2.20
2023-08-30T10:33:56.608Z,2.80
2023-08-30T10:36:26.264Z,3.00
2023-08-30T10:38:57.262Z,2.58
2023-08-30T10:41:26.994Z,2.50
2023-08-30T10:44:02.267Z,2.42
2023-08-30T10:46:37.152Z,2.10
2023-08-30T10:49:13.058Z,2.58
2023-08-30T10:51:40.701Z,2.70
2023-08-30T10:54:17.937Z,2.55
2023-08-30T10:56:59.820Z,2.00
2023-08-30T10:59:27.060Z,2.53
2023-08-30T11:01:57.959Z,2.10
2023-08-30T11:04:25.739Z,1.73
2023-08-30T11:06:54.783Z,1.83
2023-08-30T11:09:24.727Z,2.42
2023-08-30T11:11:52.748Z,2.05
2023-08-30T11:14:25.475Z,1.90
2023-08-30T11:16:53.174Z,1.10
2023-08-30T11:19:24.659Z,1.70
2023-08-30T11:21:54.741Z,1.40
2023-08-30T11:24:21.586Z,1.48
2023-08-30T11:26:55.626Z,1.55
2023-08-30T11:29:23.001Z,1.20
2023-08-30T11:31:54.574Z,2.03
2023-08-30T11:34:24.615Z,1.58
2023-08-30T11:37:14.356Z,1.38
2023-08-30T11:39:42.581Z,1.45
2023-08-30T11:42:18.942Z,1.45
2023-08-30T11:44:46.755Z,1.60
2023-08-30T11:47:21.759Z,1.45
2023-08-30T11:49:51.781Z,1.42
2023-08-30T11:52:21.385Z,1.40
2023-08-30T11:54:53.084Z,1.80
2023-08-30T11:57:24.575Z,1.65
2023-08-30T11:59:52.195Z,1.60
2023-08-30T12:02:20.015Z,2.00
2023-08-30T12:04:48.403Z,1.23
2023-08-30T12:07:35.606Z,1.42
2023-08-30T12:10:10.983Z,2.20
2023-08-30T12:12:41.772Z,1.65
2023-08-30T12:15:13.576Z,1.33
2023-08-30T12:17:40.888Z,1.20
2023-08-30T12:20:17.785Z,1.48
2023-08-30T12:22:45.757Z,1.40
2023-08-30T12:25:25.038Z,1.15
2023-08-30T12:27:54.926Z,1.13
2023-08-30T12:30:29.345Z,1.45
2023-08-30T12:33:03.961Z,1.40
2023-08-30T12:35:31.881Z,1.20
2023-08-30T12:37:59.164Z,0.77
2023-08-30T12:40:26.428Z,1.30
2023-08-30T12:43:02.842Z,0.80
2023-08-30T12:45:33.185Z,1.23
2023-08-30T12:48:05.910Z,1.73
2023-08-30T12:50:33.521Z,0.70
2023-08-30T12:53:01.010Z,1.02
2023-08-30T12:55:29.344Z,1.00
2023-08-30T12:57:57.637Z,0.80
2023-08-30T13:00:33.109Z,0.80
2023-08-30T13:03:00.996Z,0.88
2023-08-30T13:05:36.416Z,0.80
2023-08-30T13:08:07.534Z,0.65
2023-08-30T13:10:35.457Z,0.80
2023-08-30T13:13:04.908Z,0.63
2023-08-30T13:15:32.090Z,0.70
2023-08-30T13:18:00.459Z,1.05
2023-08-30T13:20:28.105Z,1.10
2023-08-30T13:22:58.964Z,0.40
2023-08-30T13:25:25.974Z,0.75
2023-08-30T13:27:53.887Z,1.27
2023-08-30T13:32:51.226Z,0.75
2023-08-30T13:35:20.314Z,1.10
2023-08-30T13:37:48.759Z,1.08
2023-08-30T13:40:15.855Z,1.02
2023-08-30T13:42:43.119Z,1.55
2023-08-30T13:45:15.357Z,1.15
2023-08-30T13:47:48.445Z,1.95
2023-08-30T13:50:20.653Z,1.30
2023-08-30T13:52:54.512Z,1.15
2023-08-30T13:55:24.452Z,1.60
2023-08-30T13:57:52.055Z,1.10
2023-08-30T14:00:21.689Z,0.90
2023-08-30T14:02:49.213Z,0.98
2023-08-30T14:05:17.781Z,0.85
2023-08-30T14:07:48.660Z,1.02
2023-08-30T14:10:21.375Z,0.93
2023-08-30T14:12:48.881Z,1.23
2023-08-30T14:15:16.240Z,0.85
2023-08-30T14:17:44.280Z,1.05
2023-08-30T14:22:43.262Z,0.95
2023-08-30T14:25:12.660Z,0.80
2023-08-30T14:27:41.592Z,0.73
2023-08-30T14:30:09.350Z,0.68
2023-08-30T14:32:36.361Z,0.93
2023-08-30T14:35:07.882Z,0.70
2023-08-30T14:37:39.098Z,0.55
2023-08-30T14:40:10.546Z,0.70
2023-08-30T14:42:39.172Z,0.98
2023-08-30T14:45:07.647Z,1.00
2023-08-30T14:47:36.343Z,0.80
2023-08-30T14:50:06.008Z,1.10
2023-08-30T14:52:35.114Z,1.45
2023-08-30T14:55:02.806Z,0.93
2023-08-30T14:57:30.214Z,2.42
2023-08-30T14:59:57.324Z,0.82
2023-08-30T15:02:24.702Z,1.17
2023-08-30T15:04:52.980Z,1.15
2023-08-30T15:07:21.302Z,0.95
2023-08-30T15:09:51.913Z,1.05
2023-08-30T15:12:19.122Z,0.90
2023-08-30T15:14:47.496Z,0.90
2023-08-30T15:17:19.248Z,0.88
2023-08-30T15:19:47.030Z,1.20
2023-08-30T15:22:24.859Z,0.50
2023-08-30T15:24:56.809Z,1.20
2023-08-30T15:27:30.190Z,0.85
2023-08-30T15:29:57.760Z,0.40
2023-08-30T15:32:28.203Z,0.90
2023-08-30T15:34:56.113Z,0.73
2023-08-30T15:37:24.454Z,0.68
2023-08-30T15:40:08.477Z,0.80
2023-08-30T15:42:37.313Z,0.60
2023-08-30T15:45:06.754Z,0.85
2023-08-30T15:47:34.244Z,0.68
2023-08-30T15:50:01.575Z,1.00
2023-08-30T15:52:31.117Z,0.60
2023-08-30T15:54:58.867Z,0.70
2023-08-30T15:57:26.676Z,0.93
2023-08-30T15:59:59.660Z,0.70
2023-08-30T16:02:27.862Z,0.80
2023-08-30T16:04:55.221Z,1.20
2023-08-30T16:07:22.160Z,0.85
2023-08-30T16:09:54.997Z,0.93
2023-08-30T16:12:26.665Z,1.00
2023-08-30T16:14:54.990Z,0.65
2023-08-30T16:17:23.492Z,0.80
2023-08-30T16:19:50.770Z,0.73
2023-08-30T16:22:17.804Z,0.98
2023-08-30T16:24:45.531Z,0.70
2023-08-30T16:27:19.250Z,0.70
2023-08-30T16:29:47.391Z,1.15
2023-08-30T16:32:15.378Z,0.63
2023-08-30T16:34:43.545Z,2.08
2023-08-30T16:37:10.929Z,1.30
2023-08-30T16:39:43.360Z,0.70
2023-08-30T16:42:10.482Z,1.00
2023-08-30T16:44:40.136Z,0.52
2023-08-30T16:47:07.648Z,0.73
2023-08-30T16:49:34.654Z,0.70
2023-08-30T16:52:04.111Z,0.80
2023-08-30T16:54:30.839Z,0.77
2023-08-30T16:56:58.157Z,0.95
2023-08-30T16:59:25.398Z,0.90
2023-08-30T17:01:52.623Z,0.90
2023-08-30T17:06:47.459Z,0.55
2023-08-30T17:09:14.698Z,0.73
2023-08-30T17:11:44.805Z,1.40
2023-08-30T17:14:14.058Z,0.88
2023-08-30T17:16:41.787Z,1.10
2023-08-30T17:19:08.878Z,1.00
2023-08-30T17:21:35.913Z,1.00
2023-08-30T17:24:03.161Z,1.17
2023-08-30T17:26:36.762Z,0.85
2023-08-30T17:29:05.017Z,0.80
2023-08-30T17:31:54.608Z,0.90
2023-08-30T17:34:22.032Z,0.70
2023-08-30T17:36:49.322Z,0.63
2023-08-30T17:41:44.083Z,0.60
2023-08-30T17:44:18.138Z,0.85
2023-08-30T17:49:14.315Z,0.63
2023-08-30T17:51:42.401Z,1.38
2023-08-30T17:54:11.946Z,0.70
2023-08-30T17:56:41.535Z,1.58
2023-08-30T17:59:08.398Z,1.77
2023-08-30T18:01:35.642Z,0.80
2023-08-30T18:04:04.214Z,0.90
2023-08-30T18:06:32.702Z,0.95
2023-08-30T18:09:00.648Z,0.80
2023-08-30T18:13:57.402Z,0.77
2023-08-30T18:16:27.225Z,1.25
2023-08-30T18:18:56.893Z,0.63
2023-08-30T18:21:24.679Z,1.02
2023-08-30T18:24:18.016Z,0.80
2023-08-30T18:26:49.734Z,0.73
2023-08-30T18:29:18.210Z,1.00
2023-08-30T18:31:46.205Z,0.57
2023-08-30T18:36:52.607Z,0.70
2023-08-30T18:39:23.609Z,0.50
2023-08-30T18:41:53.502Z,0.65
2023-08-30T18:44:20.465Z,0.90
2023-08-30T18:46:48.717Z,0.90
2023-08-30T18:49:16.292Z,0.68
2023-08-30T18:51:49.386Z,0.60
2023-08-30T18:54:18.177Z,0.95
2023-08-30T18:56:45.391Z,0.70
2023-08-30T18:59:13.544Z,1.20
2023-08-30T19:01:40.684Z,2.17
2023-08-30T19:04:08.626Z,0.93
2023-08-30T19:06:38.058Z,0.90
2023-08-30T19:09:08.188Z,1.00
2023-08-30T19:11:37.021Z,0.80
2023-08-30T19:14:04.470Z,1.17
2023-08-30T19:16:32.993Z,0.90
2023-08-30T19:19:01.662Z,0.70
2023-08-30T19:21:32.367Z,0.60
2023-08-30T19:23:59.940Z,0.95
2023-08-30T19:26:30.051Z,0.93
2023-08-30T19:28:56.902Z,1.20
2023-08-30T19:31:23.925Z,0.70
2023-08-30T19:33:52.236Z,0.77
2023-08-30T19:36:20.049Z,1.13
2023-08-30T19:38:47.173Z,0.88
2023-08-30T19:41:15.303Z,1.02
2023-08-30T19:43:43.519Z,1.23
2023-08-30T19:46:10.608Z,1.40
2023-08-30T19:48:38.213Z,1.05
2023-08-30T19:51:07.674Z,0.70
2023-08-30T19:53:35.380Z,3.40
2023-08-30T19:56:04.364Z,1.83
2023-08-30T19:58:31.957Z,0.60
2023-08-30T20:03:30.347Z,1.10
2023-08-30T20:05:57.489Z,1.00
2023-08-30T20:08:24.327Z,1.20
2023-08-30T20:10:57.140Z,1.20
2023-08-30T20:13:23.989Z,0.98
2023-08-30T20:16:04.923Z,1.15
2023-08-30T20:18:39.431Z,0.90
2023-08-30T20:21:14.973Z,1.00
2023-08-30T20:23:51.068Z,0.63
2023-08-30T20:26:22.095Z,0.50
2023-08-30T20:28:58.206Z,0.90
2023-08-30T20:31:25.078Z,0.65
2023-08-30T20:33:52.090Z,0.82
2023-08-30T20:36:34.465Z,0.80
2023-08-30T20:39:08.722Z,1.00
2023-08-30T20:41:35.926Z,0.55
2023-08-30T20:44:04.018Z,0.77
2023-08-30T20:48:58.118Z,0.93
2023-08-30T20:51:25.165Z,0.93
2023-08-30T20:53:51.887Z,1.10
2023-08-30T20:56:18.754Z,1.13
2023-08-30T20:58:48.060Z,1.80
2023-08-30T21:01:15.438Z,0.85
2023-08-30T21:03:45.140Z,2.10
2023-08-30T21:06:14.061Z,1.13
2023-08-30T21:08:42.921Z,0.98
2023-08-30T21:11:12.167Z,1.13
2023-08-30T21:13:38.789Z,1.92
2023-08-30T21:16:05.914Z,2.10
2023-08-30T21:18:32.697Z,1.50
2023-08-30T21:21:03.120Z,1.92
2023-08-30T21:23:33.497Z,1.63
2023-08-30T21:26:00.271Z,1.15
2023-08-30T21:28:28.656Z,1.60
2023-08-30T21:30:55.417Z,1.35
2023-08-30T21:33:23.786Z,1.73
2023-08-30T21:35:52.408Z,1.30
2023-08-30T21:38:20.109Z,1.77
2023-08-30T21:40:47.271Z,1.58
2023-08-30T21:43:14.701Z,1.52
2023-08-30T21:45:43.458Z,2.22
2023-08-30T21:48:11.344Z,1.55
2023-08-30T21:50:43.174Z,1.60
2023-08-30T21:53:10.144Z,1.63
2023-08-30T21:55:37.224Z,1.60
2023-08-30T21:58:04.849Z,1.30
2023-08-30T22:00:31.698Z,1.60
2023-08-30T22:02:59.441Z,1.70
2023-08-30T22:05:26.338Z,1.92
2023-08-30T22:07:53.050Z,1.33
2023-08-30T22:10:20.235Z,1.42
2023-08-30T22:12:47.537Z,1.60
2023-08-30T22:15:17.707Z,1.45
2023-08-30T22:17:46.835Z,1.17
2023-08-30T22:20:21.635Z,1.08
2023-08-30T22:22:49.070Z,0.98
2023-08-30T22:25:16.506Z,0.90
2023-08-30T22:27:50.152Z,1.20
2023-08-30T22:30:17.271Z,2.00
2023-08-30T22:32:44.900Z,1.90
2023-08-30T22:35:13.000Z,1.85
2023-08-30T22:40:10.286Z,1.80
2023-08-30T22:42:39.767Z,1.80
2023-08-30T22:45:08.661Z,1.90
2023-08-30T22:47:35.578Z,2.25
2023-08-30T22:50:02.369Z,2.25
2023-08-30T22:52:35.669Z,2.03
2023-08-30T22:55:09.018Z,2.70
2023-08-30T22:57:53.127Z,2.05
2023-08-30T23:00:19.975Z,2.08
2023-08-30T23:02:47.439Z,1.92
2023-08-30T23:05:14.323Z,2.70
2023-08-30T23:07:41.157Z,2.05
2023-08-30T23:10:09.625Z,2.03
2023-08-30T23:12:38.640Z,2.40
2023-08-30T23:15:06.860Z,2.15
2023-08-30T23:17:46.602Z,2.70
2023-08-30T23:20:15.257Z,2.05
2023-08-30T23:22:43.234Z,2.25
2023-08-30T23:25:10.919Z,2.15
2023-08-30T23:27:37.737Z,2.53
2023-08-30T23:30:06.656Z,2.10
2023-08-30T23:32:37.011Z,2.15
2023-08-30T23:35:06.151Z,2.92
2023-08-30T23:37:32.931Z,2.70
2023-08-30T23:40:02.304Z,3.20
2023-08-30T23:42:34.873Z,1.80
2023-08-30T23:45:06.536Z,2.55
2023-08-30T23:47:34.088Z,2.65
2023-08-30T23:50:08.436Z,2.45
2023-08-30T23:52:38.940Z,2.55
2023-08-30T23:55:06.082Z,2.30
2023-08-30T23:57:42.110Z,2.13
